createdAt,value
2017-07-11T00:00:41.128Z,17.74
2017-07-11T00:03:06.984Z,17.74
2017-07-11T00:05:32.989Z,17.76
2017-07-11T00:07:59.318Z,17.71
2017-07-11T00:10:25.166Z,17.69
2017-07-11T00:12:50.996Z,17.70
2017-07-11T00:15:16.868Z,17.77
2017-07-11T00:17:42.801Z,17.60
2017-07-11T00:20:08.698Z,17.44
2017-07-11T00:22:34.577Z,17.67
2017-07-11T00:25:00.537Z,17.67
2017-07-11T00:27:26.404Z,17.58
2017-07-11T00:29:52.400Z,17.59
2017-07-11T00:32:18.320Z,17.59
2017-07-11T00:34:44.195Z,17.57
2017-07-11T00:37:10.056Z,17.61
2017-07-11T00:39:35.957Z,17.58
2017-07-11T00:42:01.857Z,17.62
2017-07-11T00:44:27.723Z,17.55
2017-07-11T00:46:53.645Z,17.52
2017-07-11T00:49:19.505Z,17.53
2017-07-11T00:51:45.367Z,17.47
2017-07-11T00:54:11.209Z,17.52
2017-07-11T00:56:37.151Z,17.46
2017-07-11T00:59:03.055Z,17.41
2017-07-11T01:01:28.992Z,17.41
2017-07-11T01:03:54.827Z,17.30
2017-07-11T01:06:20.715Z,17.21
2017-07-11T01:08:46.632Z,17.17
2017-07-11T01:11:12.476Z,17.15
2017-07-11T01:13:38.475Z,16.95
2017-07-11T01:16:04.332Z,16.92
2017-07-11T01:18:30.168Z,17.07
2017-07-11T01:20:56.237Z,17.02
2017-07-11T01:23:22.209Z,17.02
2017-07-11T01:25:48.050Z,16.95
2017-07-11T01:28:13.999Z,16.93
2017-07-11T01:30:39.862Z,16.82
2017-07-11T01:33:05.724Z,16.78
2017-07-11T01:35:31.700Z,16.79
2017-07-11T01:37:57.517Z,16.70
2017-07-11T01:40:23.361Z,16.82
2017-07-11T01:42:49.243Z,16.86
2017-07-11T01:45:15.125Z,16.85
2017-07-11T01:47:41.037Z,16.75
2017-07-11T01:50:06.971Z,16.86
2017-07-11T01:52:32.813Z,16.82
2017-07-11T01:54:58.706Z,16.80
2017-07-11T01:57:24.624Z,16.85
2017-07-11T01:59:50.456Z,16.83
2017-07-11T02:02:16.359Z,16.87
2017-07-11T02:04:42.199Z,16.85
2017-07-11T02:07:08.192Z,16.76
2017-07-11T02:09:34.218Z,16.80
2017-07-11T02:12:00.042Z,16.74
2017-07-11T02:14:26.096Z,16.74
2017-07-11T02:16:51.997Z,16.70
2017-07-11T02:19:17.900Z,16.75
2017-07-11T02:21:43.765Z,16.69
2017-07-11T02:24:09.692Z,16.69
2017-07-11T02:26:35.561Z,16.67
2017-07-11T02:29:01.408Z,16.68
2017-07-11T02:31:27.325Z,16.61
2017-07-11T02:33:53.223Z,16.57
2017-07-11T02:36:19.097Z,16.60
2017-07-11T02:38:45.000Z,16.65
2017-07-11T02:41:10.898Z,16.62
2017-07-11T02:43:36.811Z,16.58
2017-07-11T02:46:02.641Z,16.61
2017-07-11T02:48:28.500Z,16.56
2017-07-11T02:50:54.338Z,16.74
2017-07-11T02:53:20.161Z,16.61
2017-07-11T02:55:46.035Z,16.68
2017-07-11T02:58:11.963Z,16.67
2017-07-11T03:00:37.809Z,16.70
2017-07-11T03:03:03.680Z,16.70
2017-07-11T03:05:29.604Z,16.69
2017-07-11T03:07:55.457Z,16.71
2017-07-11T03:10:21.319Z,16.66
2017-07-11T03:12:47.176Z,16.64
2017-07-11T03:15:13.172Z,16.58
2017-07-11T03:17:39.142Z,16.66
2017-07-11T03:20:04.952Z,16.62
2017-07-11T03:22:30.775Z,16.63
2017-07-11T03:24:56.616Z,16.54
2017-07-11T03:27:29.302Z,16.50
2017-07-11T03:29:55.142Z,16.54
2017-07-11T03:32:20.963Z,16.51
2017-07-11T03:34:46.801Z,16.50
2017-07-11T03:37:12.605Z,16.50
2017-07-11T03:39:38.444Z,16.44
2017-07-11T03:42:04.265Z,16.34
2017-07-11T03:44:30.102Z,16.40
2017-07-11T03:46:55.986Z,16.39
2017-07-11T03:49:21.994Z,16.38
2017-07-11T03:51:47.813Z,16.35
2017-07-11T03:54:20.853Z,16.38
2017-07-11T03:56:46.741Z,16.38
2017-07-11T03:59:12.553Z,16.20
2017-07-11T04:01:38.407Z,16.25
2017-07-11T04:04:04.283Z,16.33
2017-07-11T04:06:30.095Z,16.33
2017-07-11T04:08:55.935Z,16.30
2017-07-11T04:11:21.825Z,16.31
2017-07-11T04:13:47.689Z,16.29
2017-07-11T04:16:13.545Z,16.41
2017-07-11T04:18:39.367Z,16.39
2017-07-11T04:21:05.198Z,16.37
2017-07-11T04:23:31.026Z,16.30
2017-07-11T04:25:57.040Z,16.31
2017-07-11T04:28:22.878Z,16.32
2017-07-11T04:30:48.692Z,16.37
2017-07-11T04:33:14.707Z,16.37
2017-07-11T04:35:40.517Z,16.45
2017-07-11T04:38:06.353Z,16.52
2017-07-11T04:40:32.177Z,16.54
2017-07-11T04:42:57.968Z,16.54
2017-07-11T04:45:24.867Z,16.66
2017-07-11T04:47:50.784Z,16.79
2017-07-11T04:50:17.649Z,16.83
2017-07-11T04:52:58.671Z,16.82
2017-07-11T04:55:24.679Z,16.94
2017-07-11T04:57:50.490Z,16.95
2017-07-11T05:00:16.322Z,17.02
2017-07-11T05:02:42.326Z,17.11
2017-07-11T05:05:08.121Z,17.11
2017-07-11T05:07:34.121Z,17.17
2017-07-11T05:09:59.973Z,17.28
2017-07-11T05:12:25.829Z,17.37
2017-07-11T06:36:47.566Z,19.16
2017-07-11T06:39:13.370Z,19.64
2017-07-11T06:41:39.174Z,19.85
2017-07-11T06:44:05.005Z,19.94
2017-07-11T06:46:31.393Z,19.67
2017-07-11T06:48:57.247Z,19.42
2017-07-11T06:51:23.102Z,19.25
2017-07-11T06:53:48.894Z,19.28
2017-07-11T06:56:15.075Z,19.29
2017-07-11T06:58:40.988Z,19.35
2017-07-11T07:01:07.003Z,19.07
2017-07-11T07:03:32.846Z,19.00
2017-07-11T07:05:59.459Z,18.87
2017-07-11T07:08:25.263Z,19.38
2017-07-11T07:10:51.105Z,19.61
2017-07-11T07:13:16.909Z,20.26
2017-07-11T07:15:42.714Z,20.11
2017-07-11T07:18:08.660Z,20.33
2017-07-11T07:20:34.582Z,20.58
2017-07-11T07:23:00.380Z,20.50
2017-07-11T07:25:26.247Z,20.17
2017-07-11T07:27:52.245Z,20.06
2017-07-11T07:30:18.054Z,19.67
2017-07-11T07:32:43.902Z,19.13
2017-07-11T07:35:09.919Z,18.83
2017-07-11T07:37:35.823Z,18.20
2017-07-11T07:40:01.670Z,17.47
2017-07-11T07:42:27.503Z,16.98
2017-07-11T07:44:53.773Z,16.90
2017-07-11T07:47:19.624Z,16.73
2017-07-11T07:49:45.622Z,16.77
2017-07-11T07:52:11.685Z,16.53
2017-07-11T07:54:37.599Z,16.55
2017-07-11T07:57:03.522Z,16.40
2017-07-11T07:59:29.422Z,16.25
2017-07-11T08:01:55.324Z,16.05
2017-07-11T08:04:21.398Z,15.92
2017-07-11T08:06:47.374Z,16.04
2017-07-11T08:09:13.197Z,16.24
2017-07-11T08:11:39.792Z,16.70
2017-07-11T08:14:05.601Z,16.91
2017-07-11T08:16:31.465Z,17.68
2017-07-11T08:18:57.263Z,18.65
2017-07-11T08:21:23.099Z,19.11
2017-07-11T08:23:48.943Z,19.31
2017-07-11T08:26:14.749Z,19.64
2017-07-11T08:28:40.556Z,19.55
2017-07-11T08:31:06.383Z,19.68
2017-07-11T08:33:32.187Z,19.30
2017-07-11T08:35:58.022Z,19.12
2017-07-11T08:38:23.850Z,19.56
2017-07-11T08:40:49.650Z,19.31
2017-07-11T08:43:15.719Z,19.25
2017-07-11T08:45:41.698Z,19.45
2017-07-11T08:48:07.518Z,19.43
2017-07-11T08:50:33.350Z,19.59
2017-07-11T08:52:59.150Z,20.12
2017-07-11T08:55:24.941Z,20.34
2017-07-11T08:57:50.848Z,19.81
2017-07-11T09:00:16.745Z,19.87
2017-07-11T09:02:42.585Z,19.93
2017-07-11T09:05:08.407Z,20.06
2017-07-11T09:07:34.336Z,19.67
2017-07-11T09:10:00.346Z,19.66
2017-07-11T09:12:27.074Z,19.48
2017-07-11T09:14:52.895Z,19.50
2017-07-11T09:17:18.759Z,19.28
2017-07-11T09:19:44.587Z,19.52
2017-07-11T09:22:10.435Z,19.75
2017-07-11T09:24:36.273Z,19.91
2017-07-11T09:27:02.275Z,19.67
2017-07-11T09:29:28.206Z,19.87
2017-07-11T09:31:54.675Z,19.88
2017-07-11T09:34:20.491Z,20.35
2017-07-11T09:36:46.335Z,21.04
2017-07-11T09:39:12.131Z,20.64
2017-07-11T09:41:38.669Z,19.99
2017-07-11T09:44:04.480Z,19.68
2017-07-11T09:46:30.299Z,19.70
2017-07-11T09:48:56.144Z,19.84
2017-07-11T09:51:22.194Z,19.77
2017-07-11T09:53:48.025Z,19.46
2017-07-11T09:56:13.902Z,19.35
2017-07-11T09:58:39.834Z,19.13
2017-07-11T10:01:05.673Z,18.99
2017-07-11T10:03:31.523Z,19.05
2017-07-11T10:05:57.421Z,18.85
2017-07-11T10:08:23.359Z,19.18
2017-07-11T10:10:49.405Z,19.01
2017-07-11T10:13:15.372Z,19.13
2017-07-11T10:15:41.322Z,19.07
2017-07-11T10:18:07.167Z,18.98
2017-07-11T10:20:33.029Z,19.24
2017-07-11T10:22:59.059Z,19.35
2017-07-11T10:25:24.859Z,19.71
2017-07-11T10:27:50.696Z,19.79
2017-07-11T10:30:16.511Z,19.88
2017-07-11T10:32:42.550Z,20.90
2017-07-11T10:35:08.460Z,21.60
2017-07-11T10:37:34.375Z,21.81
2017-07-11T10:40:00.182Z,21.68
2017-07-11T10:42:26.258Z,22.46
2017-07-11T10:44:52.229Z,22.93
2017-07-11T10:47:18.050Z,22.87
2017-07-11T10:49:43.863Z,22.98
2017-07-11T10:52:09.734Z,22.02
2017-07-11T10:54:35.721Z,22.05
2017-07-11T10:57:01.558Z,21.87
2017-07-11T10:59:27.373Z,21.53
2017-07-11T11:02:08.365Z,20.92
2017-07-11T11:04:35.088Z,20.78
2017-07-11T11:07:00.918Z,20.48
2017-07-11T11:09:26.782Z,20.51
2017-07-11T11:11:52.608Z,20.46
2017-07-11T11:14:18.456Z,20.48
2017-07-11T11:16:44.505Z,20.70
2017-07-11T11:19:10.415Z,20.71
2017-07-11T11:21:36.270Z,20.97
2017-07-11T11:24:02.193Z,21.27
2017-07-11T11:26:28.012Z,21.30
2017-07-11T11:28:53.823Z,21.48
2017-07-11T11:31:19.688Z,21.44
2017-07-11T11:33:45.524Z,21.76
2017-07-11T11:36:11.373Z,21.83
2017-07-11T11:38:37.291Z,21.64
2017-07-11T11:41:03.123Z,21.64
2017-07-11T11:43:29.000Z,21.21
2017-07-11T11:45:54.831Z,21.13
2017-07-11T11:48:20.856Z,21.14
2017-07-11T11:50:46.912Z,21.19
2017-07-11T11:53:12.806Z,21.16
2017-07-11T11:55:39.501Z,21.43
2017-07-11T11:58:06.169Z,21.29
2017-07-11T12:00:32.167Z,21.25
2017-07-11T12:02:58.265Z,21.15
2017-07-11T12:05:24.247Z,22.60
2017-07-11T12:07:50.121Z,23.26
2017-07-11T12:10:16.098Z,23.86
2017-07-11T12:12:42.129Z,23.81
2017-07-11T12:15:09.223Z,23.37
2017-07-11T12:17:35.148Z,22.89
2017-07-11T12:20:01.010Z,22.92
2017-07-11T12:22:27.151Z,22.75
2017-07-11T12:24:53.050Z,22.57
2017-07-11T12:27:19.076Z,22.36
2017-07-11T12:29:45.107Z,22.86
2017-07-11T12:32:11.193Z,23.69
2017-07-11T12:34:37.055Z,24.12
2017-07-11T12:37:02.912Z,24.96
2017-07-11T12:39:28.812Z,24.39
2017-07-11T12:41:54.830Z,24.64
2017-07-11T12:44:20.843Z,24.62
2017-07-11T12:46:47.654Z,23.65
2017-07-11T12:49:13.638Z,23.90
2017-07-11T12:51:39.542Z,23.97
2017-07-11T12:54:05.634Z,25.02
2017-07-11T12:56:31.556Z,25.07
2017-07-11T12:58:57.586Z,25.21
2017-07-11T13:01:23.635Z,25.29
2017-07-11T13:03:49.526Z,24.64
2017-07-11T13:06:15.335Z,24.98
2017-07-11T13:08:41.285Z,23.96
2017-07-11T13:11:07.205Z,23.34
2017-07-11T13:13:33.075Z,22.89
2017-07-11T13:15:58.927Z,23.01
2017-07-11T13:18:24.857Z,22.93
2017-07-11T13:20:50.729Z,22.93
2017-07-11T13:23:16.784Z,23.14
2017-07-11T13:25:42.707Z,23.07
2017-07-11T13:28:08.577Z,22.81
2017-07-11T13:30:34.393Z,23.08
2017-07-11T13:33:00.257Z,23.20
2017-07-11T13:35:26.301Z,23.16
2017-07-11T13:37:52.313Z,23.10
2017-07-11T13:40:18.367Z,23.21
2017-07-11T13:42:44.355Z,23.46
2017-07-11T13:45:10.379Z,23.38
2017-07-11T13:47:36.416Z,23.78
2017-07-11T13:50:02.351Z,23.87
2017-07-11T13:52:28.225Z,23.90
2017-07-11T13:54:54.058Z,23.86
2017-07-11T13:57:19.882Z,23.64
2017-07-11T13:59:45.738Z,23.56
2017-07-11T14:02:11.723Z,23.87
2017-07-11T14:04:37.545Z,23.86
2017-07-11T14:07:03.360Z,23.78
2017-07-11T14:09:29.420Z,23.54
2017-07-11T14:11:55.306Z,23.59
2017-07-11T14:14:21.135Z,23.46
2017-07-11T14:16:47.052Z,23.22
2017-07-11T14:19:12.878Z,23.56
2017-07-11T14:21:38.923Z,23.30
2017-07-11T14:24:04.820Z,23.29
2017-07-11T14:26:30.666Z,23.28
2017-07-11T14:28:56.527Z,23.09
2017-07-11T14:31:22.363Z,22.96
2017-07-11T14:33:48.426Z,23.18
2017-07-11T14:36:14.410Z,23.21
2017-07-11T14:38:40.430Z,23.05
2017-07-11T14:41:06.278Z,23.15
2017-07-11T14:43:32.186Z,23.24
2017-07-11T14:45:58.139Z,23.27
2017-07-11T14:48:24.041Z,23.55
2017-07-11T14:50:49.990Z,23.27
2017-07-11T14:53:16.038Z,23.73
2017-07-11T14:55:48.714Z,23.89
2017-07-11T14:58:14.868Z,24.02
2017-07-11T15:00:40.821Z,22.99
2017-07-11T15:03:06.781Z,24.17
2017-07-11T15:05:32.616Z,23.80
2017-07-11T15:07:58.729Z,23.86
2017-07-11T15:10:24.587Z,23.74
2017-07-11T15:12:50.541Z,23.39
2017-07-11T15:15:16.514Z,23.97
2017-07-11T15:17:42.346Z,24.23
2017-07-11T15:20:08.356Z,24.39
2017-07-11T15:22:34.264Z,24.18
2017-07-11T15:25:00.172Z,24.54
2017-07-11T15:27:26.033Z,24.44
2017-07-11T15:29:52.080Z,24.27
2017-07-11T15:32:18.070Z,24.19
2017-07-11T15:34:43.972Z,24.12
2017-07-11T15:37:09.932Z,24.13
2017-07-11T15:39:35.860Z,23.93
2017-07-11T15:42:01.741Z,23.76
2017-07-11T15:44:27.779Z,23.69
2017-07-11T15:46:53.608Z,23.44
2017-07-11T15:49:19.609Z,23.46
2017-07-11T15:51:45.488Z,23.32
2017-07-11T15:54:11.381Z,23.27
2017-07-11T15:56:37.202Z,22.84
2017-07-11T15:59:03.141Z,23.19
2017-07-11T16:01:29.039Z,23.00
2017-07-11T16:03:54.849Z,22.99
2017-07-11T16:06:20.775Z,22.37
2017-07-11T16:08:46.683Z,22.75
2017-07-11T16:11:12.626Z,22.63
2017-07-11T16:13:38.581Z,23.02
2017-07-11T16:16:04.465Z,22.98
2017-07-11T16:18:30.473Z,22.72
2017-07-11T16:20:56.426Z,22.57
2017-07-11T16:23:22.266Z,22.78
2017-07-11T16:25:48.166Z,22.85
2017-07-11T16:28:14.148Z,22.81
2017-07-11T16:30:40.166Z,22.77
2017-07-11T16:33:06.300Z,22.66
2017-07-11T16:35:32.137Z,22.63
2017-07-11T16:37:57.947Z,22.61
2017-07-11T16:40:23.826Z,22.61
2017-07-11T16:42:49.741Z,22.49
2017-07-11T16:45:15.637Z,22.57
2017-07-11T16:47:41.544Z,22.36
2017-07-11T16:50:07.458Z,22.60
2017-07-11T16:52:33.276Z,22.44
2017-07-11T16:54:59.144Z,22.19
2017-07-11T16:57:25.037Z,22.19
2017-07-11T16:59:51.048Z,22.15
2017-07-11T17:02:16.967Z,22.25
2017-07-11T17:04:42.803Z,22.06
2017-07-11T17:07:08.685Z,22.09
2017-07-11T17:09:34.545Z,22.09
2017-07-11T17:12:00.419Z,22.16
2017-07-11T17:14:26.280Z,22.02
2017-07-11T17:16:52.138Z,22.04
2017-07-11T17:19:17.987Z,22.05
2017-07-11T17:21:43.903Z,22.17
2017-07-11T17:24:09.730Z,22.39
2017-07-11T17:26:35.670Z,22.52
2017-07-11T17:29:01.565Z,22.46
2017-07-11T17:31:27.388Z,22.47
2017-07-11T17:33:53.344Z,22.48
2017-07-11T17:36:19.233Z,22.58
2017-07-11T17:38:45.058Z,22.48
2017-07-11T17:41:10.923Z,22.47
2017-07-11T17:43:36.742Z,22.48
2017-07-11T17:46:02.572Z,22.66
2017-07-11T17:48:28.456Z,22.66
2017-07-11T17:50:54.432Z,22.34
2017-07-11T17:53:20.263Z,22.37
2017-07-11T17:55:46.193Z,22.24
2017-07-11T17:58:12.138Z,22.24
2017-07-11T18:00:38.121Z,22.31
2017-07-11T18:03:03.977Z,22.21
2017-07-11T18:05:29.957Z,21.96
2017-07-11T18:07:55.793Z,21.89
2017-07-11T18:10:21.740Z,21.95
2017-07-11T18:12:47.573Z,21.82
2017-07-11T18:15:13.473Z,21.78
2017-07-11T18:17:39.387Z,21.76
2017-07-11T18:20:05.202Z,21.30
2017-07-11T18:22:31.048Z,21.63
2017-07-11T18:24:56.856Z,21.61
2017-07-11T18:27:22.834Z,21.39
2017-07-11T18:29:48.758Z,21.38
2017-07-11T18:32:14.763Z,21.29
2017-07-11T18:34:40.665Z,21.30
2017-07-11T18:37:06.545Z,21.17
2017-07-11T18:39:32.400Z,21.17
2017-07-11T18:41:58.262Z,20.79
2017-07-11T18:44:24.309Z,20.81
2017-07-11T18:46:50.225Z,20.61
2017-07-11T18:49:16.079Z,20.77
2017-07-11T18:51:41.921Z,20.73
2017-07-11T18:54:07.756Z,20.70
2017-07-11T18:56:33.816Z,20.61
2017-07-11T18:58:59.816Z,20.58
2017-07-11T19:01:25.842Z,20.60
2017-07-11T19:03:51.797Z,20.53
2017-07-11T19:06:17.729Z,20.47
2017-07-11T19:08:43.698Z,20.17
2017-07-11T19:11:09.739Z,20.18
2017-07-11T19:13:35.751Z,20.19
2017-07-11T19:16:01.638Z,20.23
2017-07-11T19:18:27.497Z,20.03
2017-07-11T19:20:53.427Z,20.00
2017-07-11T19:23:19.384Z,20.08
2017-07-11T19:25:45.355Z,20.10
2017-07-11T19:28:11.197Z,20.16
2017-07-11T19:30:37.190Z,20.15
2017-07-11T19:33:03.053Z,20.15
2017-07-11T19:35:28.914Z,20.19
2017-07-11T19:37:54.721Z,20.09
2017-07-11T19:40:20.614Z,20.08
2017-07-11T19:42:46.565Z,19.97
2017-07-11T19:45:12.413Z,19.90
2017-07-11T19:47:38.265Z,19.79
2017-07-11T19:50:04.170Z,19.83
2017-07-11T19:52:30.838Z,19.52
2017-07-11T19:54:56.657Z,19.65
2017-07-11T19:57:22.470Z,19.64
2017-07-11T19:59:48.453Z,19.57
2017-07-11T20:02:14.425Z,19.17
2017-07-11T20:04:40.469Z,19.23
2017-07-11T20:07:06.345Z,19.14
2017-07-11T20:09:32.202Z,19.06
2017-07-11T20:11:58.170Z,19.12
2017-07-11T20:14:24.026Z,19.27
2017-07-11T20:16:49.877Z,19.02
2017-07-11T20:19:15.855Z,19.32
2017-07-11T20:21:41.777Z,19.25
2017-07-11T20:24:07.689Z,18.82
2017-07-11T20:26:33.572Z,18.79
2017-07-11T20:28:59.617Z,18.51
2017-07-11T20:31:25.616Z,18.81
2017-07-11T20:33:51.451Z,18.92
2017-07-11T20:36:17.289Z,18.99
2017-07-11T20:38:43.261Z,18.90
2017-07-11T20:41:09.178Z,18.87
2017-07-11T20:43:35.047Z,19.08
2017-07-11T20:46:00.955Z,18.58
2017-07-11T20:48:26.817Z,18.63
2017-07-11T20:50:53.584Z,18.68
2017-07-11T20:53:19.425Z,18.37
2017-07-11T20:55:45.262Z,18.38
2017-07-11T20:58:11.273Z,18.23
2017-07-11T21:00:37.122Z,18.16
2017-07-11T21:03:03.157Z,18.21
2017-07-11T21:05:29.724Z,18.46
2017-07-11T21:07:55.634Z,18.41
2017-07-11T21:10:21.576Z,18.19
2017-07-11T21:12:47.557Z,18.01
2017-07-11T21:15:13.415Z,18.15
2017-07-11T21:17:39.317Z,18.46
2017-07-11T21:20:05.294Z,18.27
2017-07-11T21:22:31.259Z,18.16
2017-07-11T21:24:57.128Z,18.08
2017-07-11T21:27:23.029Z,17.94
2017-07-11T21:29:48.949Z,17.76
2017-07-11T21:32:14.838Z,17.94
2017-07-11T21:34:40.876Z,17.91
2017-07-11T21:37:06.756Z,18.16
2017-07-11T21:39:32.663Z,18.12
2017-07-11T21:41:58.637Z,18.00
2017-07-11T21:44:24.476Z,17.99
2017-07-11T21:46:50.392Z,17.78
2017-07-11T21:49:16.262Z,17.83
2017-07-11T21:51:42.116Z,18.09
2017-07-11T21:54:08.002Z,18.15
2017-07-11T21:56:33.908Z,18.05
2017-07-11T21:58:59.916Z,17.86
2017-07-11T22:01:25.870Z,17.85
2017-07-11T22:03:51.787Z,17.74
2017-07-11T22:06:17.657Z,17.80
2017-07-11T22:08:43.510Z,17.70
2017-07-11T22:11:09.523Z,17.75
2017-07-11T22:13:35.504Z,17.79
2017-07-11T22:16:01.350Z,17.89
2017-07-11T22:18:27.389Z,17.84
2017-07-11T22:20:53.383Z,17.83
2017-07-11T22:23:19.223Z,17.84
2017-07-11T22:25:45.189Z,17.85
2017-07-11T22:28:11.104Z,17.96
2017-07-11T22:30:37.125Z,17.93
2017-07-11T22:33:03.045Z,17.95
2017-07-11T22:35:28.932Z,17.91
2017-07-11T22:37:54.966Z,17.93
2017-07-11T22:40:20.904Z,17.81
2017-07-11T22:42:46.801Z,17.76
2017-07-11T22:45:12.637Z,17.78
2017-07-11T22:47:38.556Z,17.93
2017-07-11T22:50:04.435Z,17.98
2017-07-11T22:52:30.275Z,17.75
2017-07-11T22:54:56.306Z,17.68
2017-07-11T22:57:22.287Z,17.66
2017-07-11T22:59:48.138Z,17.73
2017-07-11T23:02:13.980Z,17.76
2017-07-11T23:04:39.948Z,17.51
2017-07-11T23:07:05.781Z,17.47
2017-07-11T23:09:31.619Z,17.52
2017-07-11T23:11:57.594Z,17.58
2017-07-11T23:14:23.493Z,17.56
2017-07-11T23:16:49.408Z,17.34
2017-07-11T23:19:15.247Z,17.41
2017-07-11T23:21:41.210Z,17.45
2017-07-11T23:24:07.072Z,17.43
2017-07-11T23:26:32.913Z,17.52
2017-07-11T23:28:58.806Z,17.29
2017-07-11T23:31:24.826Z,17.47
2017-07-11T23:33:50.809Z,17.61
2017-07-11T23:36:16.665Z,17.45
2017-07-11T23:38:42.614Z,17.49
2017-07-11T23:41:08.547Z,17.40
2017-07-11T23:43:34.502Z,17.29
2017-07-11T23:46:00.609Z,17.24
2017-07-11T23:48:26.485Z,17.30
2017-07-11T23:50:52.319Z,17.31
2017-07-11T23:53:18.198Z,17.34
2017-07-11T23:55:44.057Z,17.31
2017-07-11T23:58:10.856Z,17.28
